createdAt,value
2023-04-24T00:00:48.012Z,9.50
2023-04-24T00:03:29.003Z,9.50
2023-04-24T00:05:57.488Z,9.80
2023-04-24T00:08:25.337Z,8.80
2023-04-24T00:10:54.220Z,9.70
2023-04-24T00:13:21.990Z,7.70
2023-04-24T00:15:49.925Z,7.20
2023-04-24T00:18:17.986Z,7.70
2023-04-24T00:20:45.795Z,9.80
2023-04-24T00:23:13.898Z,9.10
2023-04-24T00:25:41.867Z,7.40
2023-04-24T00:28:09.660Z,7.30
2023-04-24T00:30:37.445Z,6.80
2023-04-24T00:33:05.349Z,8.80
2023-04-24T00:35:33.181Z,5.90
2023-04-24T00:38:01.304Z,8.90
2023-04-24T00:40:29.474Z,10.30
2023-04-24T00:42:57.664Z,8.20
2023-04-24T00:45:25.969Z,10.20
2023-04-24T00:47:54.689Z,8.00
2023-04-24T00:50:23.070Z,7.70
2023-04-24T00:55:19.983Z,8.10
2023-04-24T00:57:49.730Z,7.30
2023-04-24T01:00:18.274Z,9.40
2023-04-24T01:02:47.192Z,8.00
2023-04-24T01:05:16.577Z,7.40
2023-04-24T01:07:46.753Z,8.00
2023-04-24T01:10:15.781Z,8.00
2023-04-24T01:12:43.624Z,11.20
2023-04-24T01:15:13.512Z,8.50
2023-04-24T01:17:43.095Z,9.60
2023-04-24T01:20:11.761Z,11.30
2023-04-24T01:22:39.537Z,11.00
2023-04-24T01:25:07.971Z,9.80
2023-04-24T01:27:35.887Z,12.20
2023-04-24T01:30:04.460Z,9.40
2023-04-24T01:32:32.467Z,10.70
2023-04-24T01:35:00.610Z,10.70
2023-04-24T01:37:28.420Z,8.90
2023-04-24T01:39:56.469Z,8.40
2023-04-24T01:42:24.637Z,8.30
2023-04-24T01:44:52.772Z,8.10
2023-04-24T01:47:21.046Z,9.80
2023-04-24T01:49:49.577Z,8.80
2023-04-24T01:52:18.804Z,10.80
2023-04-24T01:54:46.549Z,9.10
2023-04-24T01:57:15.646Z,12.80
2023-04-24T01:59:43.839Z,10.70
2023-04-24T02:02:11.758Z,7.90
2023-04-24T02:04:40.484Z,12.10
2023-04-24T02:07:09.195Z,13.70
2023-04-24T02:09:36.950Z,10.20
2023-04-24T02:12:04.655Z,9.50
2023-04-24T02:14:32.507Z,11.50
2023-04-24T02:17:00.275Z,11.80
2023-04-24T02:19:28.050Z,12.50
2023-04-24T02:21:55.884Z,10.40
2023-04-24T02:24:23.734Z,7.30
2023-04-24T02:26:51.955Z,8.70
2023-04-24T02:29:19.737Z,9.00
2023-04-24T02:31:47.487Z,9.10
2023-04-24T02:34:15.883Z,12.90
2023-04-24T02:36:43.871Z,11.30
2023-04-24T02:39:11.610Z,10.00
2023-04-24T02:41:40.328Z,11.60
2023-04-24T02:44:08.120Z,11.50
2023-04-24T02:46:35.839Z,11.30
2023-04-24T02:49:03.646Z,12.80
2023-04-24T02:51:31.957Z,12.10
2023-04-24T02:53:59.781Z,10.80
2023-04-24T02:56:27.830Z,14.10
2023-04-24T02:58:56.496Z,9.80
2023-04-24T03:01:24.321Z,11.50
2023-04-24T03:03:52.313Z,13.80
2023-04-24T03:06:20.185Z,12.00
2023-04-24T03:08:48.517Z,10.10
2023-04-24T03:11:16.353Z,10.70
2023-04-24T03:13:44.078Z,10.30
2023-04-24T03:16:12.012Z,11.40
2023-04-24T03:18:39.936Z,10.10
2023-04-24T03:21:08.146Z,13.10
2023-04-24T03:23:36.204Z,12.60
2023-04-24T03:26:04.073Z,12.20
2023-04-24T03:28:32.062Z,9.70
2023-04-24T03:31:02.137Z,10.10
2023-04-24T03:33:33.129Z,11.80
2023-04-24T03:36:02.817Z,11.90
2023-04-24T03:38:37.629Z,12.20
2023-04-24T03:41:20.105Z,9.80
2023-04-24T03:43:51.499Z,11.50
2023-04-24T03:46:19.308Z,11.10
2023-04-24T03:48:52.910Z,12.40
2023-04-24T03:51:22.931Z,9.10
2023-04-24T03:53:52.120Z,9.20
2023-04-24T03:56:22.000Z,10.00
2023-04-24T03:58:49.980Z,7.90
2023-04-24T04:01:18.284Z,11.10
2023-04-24T04:03:53.585Z,9.40
2023-04-24T04:06:24.072Z,10.30
2023-04-24T04:08:53.329Z,8.70
2023-04-24T04:11:21.124Z,11.80
2023-04-24T04:13:49.073Z,10.20
2023-04-24T04:21:14.399Z,11.70
2023-04-24T04:23:42.829Z,9.80
2023-04-24T04:26:15.948Z,8.40
2023-04-24T04:28:54.145Z,10.60
2023-04-24T04:31:22.103Z,8.80
2023-04-24T04:33:50.697Z,10.60
2023-04-24T04:36:18.444Z,10.20
2023-04-24T04:38:48.428Z,8.90
2023-04-24T04:41:42.138Z,10.50
2023-04-24T04:44:11.856Z,8.70
2023-04-24T04:46:39.888Z,9.80
2023-04-24T04:49:17.795Z,11.20
2023-04-24T04:51:46.862Z,11.80
2023-04-24T04:54:14.893Z,10.80
2023-04-24T04:56:42.704Z,11.50
2023-04-24T04:59:12.170Z,8.00
2023-04-24T05:01:42.278Z,7.70
2023-04-24T05:04:11.689Z,10.50
2023-04-24T05:06:39.672Z,8.60
2023-04-24T05:09:08.519Z,11.80
2023-04-24T05:11:52.259Z,9.90
2023-04-24T05:14:20.122Z,13.90
2023-04-24T05:16:47.846Z,11.30
2023-04-24T05:19:15.817Z,8.30
2023-04-24T05:21:43.681Z,9.60
2023-04-24T05:24:12.204Z,8.90
2023-04-24T05:26:59.646Z,10.10
2023-04-24T05:29:32.755Z,12.40
2023-04-24T05:32:01.996Z,12.40
2023-04-24T05:34:31.147Z,12.90
2023-04-24T05:36:59.666Z,9.80
2023-04-24T05:39:27.786Z,9.30
2023-04-24T05:41:59.290Z,10.30
2023-04-24T05:44:27.145Z,5.00
2023-04-24T05:46:56.600Z,9.80
2023-04-24T05:49:24.785Z,9.50
2023-04-24T05:51:52.843Z,10.90
2023-04-24T05:54:20.610Z,13.30
2023-04-24T05:56:48.505Z,6.90
2023-04-24T05:59:20.829Z,10.60
2023-04-24T06:01:49.324Z,10.60
2023-04-24T06:04:19.765Z,10.30
2023-04-24T06:06:51.733Z,10.20
2023-04-24T06:09:19.636Z,10.70
2023-04-24T06:11:47.613Z,8.30
2023-04-24T06:14:15.576Z,12.70
2023-04-24T06:17:03.826Z,9.30
2023-04-24T06:19:36.298Z,9.00
2023-04-24T06:22:04.700Z,9.30
2023-04-24T06:24:32.889Z,8.90
2023-04-24T06:27:01.555Z,14.40
2023-04-24T06:29:29.464Z,8.60
2023-04-24T06:31:57.275Z,9.00
2023-04-24T06:34:25.101Z,5.00
2023-04-24T06:36:52.965Z,7.60
2023-04-24T06:39:20.819Z,9.30
2023-04-24T06:41:48.739Z,7.90
2023-04-24T06:44:20.881Z,9.00
2023-04-24T06:46:48.720Z,9.40
2023-04-24T06:49:17.246Z,8.70
2023-04-24T06:51:45.086Z,11.50
2023-04-24T06:54:12.838Z,9.40
2023-04-24T06:56:40.795Z,12.30
2023-04-24T06:59:08.543Z,12.10
2023-04-24T07:01:36.405Z,7.80
2023-04-24T07:04:04.358Z,7.40
2023-04-24T07:06:32.770Z,8.50
2023-04-24T07:09:01.348Z,8.30
2023-04-24T07:11:30.401Z,9.60
2023-04-24T07:13:58.251Z,8.60
2023-04-24T07:16:26.914Z,10.10
2023-04-24T07:18:54.688Z,8.70
2023-04-24T07:21:22.453Z,9.30
2023-04-24T07:23:50.318Z,7.50
2023-04-24T07:26:18.303Z,9.10
2023-04-24T07:28:46.407Z,9.50
2023-04-24T07:31:15.903Z,8.30
2023-04-24T07:33:43.785Z,11.20
2023-04-24T07:36:16.445Z,9.70
2023-04-24T07:38:44.303Z,10.10
2023-04-24T07:41:12.733Z,8.30
2023-04-24T07:43:40.617Z,8.20
2023-04-24T07:46:09.452Z,9.80
2023-04-24T07:48:37.925Z,9.80
2023-04-24T07:51:05.742Z,10.50
2023-04-24T07:53:33.541Z,9.50
2023-04-24T07:56:01.254Z,10.20
2023-04-24T07:58:29.177Z,8.30
2023-04-24T08:00:56.940Z,10.30
2023-04-24T08:03:26.002Z,10.40
2023-04-24T08:05:54.031Z,9.40
2023-04-24T08:08:23.083Z,10.00
2023-04-24T08:10:51.528Z,8.30
2023-04-24T08:13:19.248Z,9.50
2023-04-24T08:15:47.515Z,8.50
2023-04-24T08:18:16.758Z,10.30
2023-04-24T08:23:12.558Z,11.00
2023-04-24T08:25:40.609Z,9.90
2023-04-24T08:28:10.761Z,8.90
2023-04-24T08:30:39.520Z,9.60
2023-04-24T08:33:08.278Z,9.40
2023-04-24T08:35:36.386Z,11.20
2023-04-24T08:38:04.132Z,10.30
2023-04-24T08:40:35.706Z,7.50
2023-04-24T08:43:05.991Z,6.30
2023-04-24T08:45:34.478Z,8.20
2023-04-24T08:48:03.782Z,7.20
2023-04-24T08:50:32.947Z,8.60
2023-04-24T08:53:03.477Z,8.20
2023-04-24T08:55:34.404Z,6.90
2023-04-24T08:58:03.601Z,6.40
2023-04-24T09:00:32.279Z,8.60
2023-04-24T09:03:02.951Z,10.30
2023-04-24T09:05:31.503Z,7.90
2023-04-24T09:08:02.403Z,7.10
2023-04-24T09:10:31.636Z,5.40
2023-04-24T09:13:02.344Z,6.80
2023-04-24T09:15:30.439Z,10.80
2023-04-24T09:17:58.552Z,7.30
2023-04-24T09:20:26.506Z,13.50
2023-04-24T09:23:00.703Z,7.30
2023-04-24T09:25:37.074Z,9.10
2023-04-24T09:28:06.859Z,8.10
2023-04-24T09:30:34.629Z,8.80
2023-04-24T09:33:16.611Z,7.40
2023-04-24T09:35:53.443Z,7.50
2023-04-24T09:38:32.762Z,6.70
2023-04-24T09:41:06.025Z,8.10
2023-04-24T09:43:34.559Z,7.20
2023-04-24T09:46:08.439Z,9.20
2023-04-24T09:48:38.610Z,6.20
2023-04-24T09:51:16.961Z,7.20
2023-04-24T09:53:48.442Z,9.20
2023-04-24T09:56:16.822Z,6.60
2023-04-24T09:58:44.591Z,7.70
2023-04-24T10:01:12.592Z,7.30
2023-04-24T10:03:43.657Z,8.80
2023-04-24T10:06:12.815Z,6.70
2023-04-24T10:08:40.735Z,8.20
2023-04-24T10:11:08.898Z,7.70
2023-04-24T10:13:37.128Z,6.10
2023-04-24T10:16:05.512Z,4.50
2023-04-24T10:18:33.816Z,7.20
2023-04-24T10:21:02.388Z,5.80
2023-04-24T10:23:31.304Z,6.50
2023-04-24T10:28:29.391Z,6.90
2023-04-24T10:30:58.271Z,5.70
2023-04-24T10:33:27.657Z,7.10
2023-04-24T10:35:56.503Z,5.80
2023-04-24T10:38:28.037Z,7.50
2023-04-24T10:41:09.450Z,5.80
2023-04-24T10:43:37.720Z,6.80
2023-04-24T10:46:07.305Z,5.40
2023-04-24T10:48:35.506Z,6.20
2023-04-24T10:51:03.478Z,4.60
2023-04-24T10:53:31.828Z,5.60
2023-04-24T10:55:59.499Z,5.70
2023-04-24T10:58:53.500Z,5.50
2023-04-24T11:01:30.500Z,7.60
2023-04-24T11:04:04.272Z,6.30
2023-04-24T11:06:36.082Z,6.10
2023-04-24T11:09:08.720Z,6.50
2023-04-24T11:11:38.532Z,7.80
2023-04-24T11:14:08.032Z,5.70
2023-04-24T11:16:52.299Z,10.00
2023-04-24T11:19:25.450Z,6.60
2023-04-24T11:21:57.243Z,5.20
2023-04-24T11:24:38.252Z,6.40
2023-04-24T11:27:14.843Z,5.30
2023-04-24T11:29:58.145Z,5.70
2023-04-24T11:32:42.815Z,5.80
2023-04-24T11:35:26.217Z,6.00
2023-04-24T11:40:26.815Z,4.90
2023-04-24T11:42:58.390Z,9.30
2023-04-24T11:45:29.114Z,6.20
2023-04-24T11:47:58.106Z,5.40
2023-04-24T11:50:29.556Z,5.40
2023-04-24T11:52:57.771Z,5.90
2023-04-24T11:55:29.905Z,4.90
2023-04-24T11:57:59.706Z,4.40
2023-04-24T12:00:32.769Z,6.50
2023-04-24T12:03:13.365Z,3.60
2023-04-24T12:05:42.166Z,5.70
2023-04-24T12:08:10.534Z,5.10
2023-04-24T12:10:38.520Z,8.40
2023-04-24T12:13:06.651Z,6.40
2023-04-24T12:15:34.771Z,5.80
2023-04-24T12:18:02.816Z,4.60
2023-04-24T12:20:33.403Z,3.70
2023-04-24T12:23:02.299Z,6.00
2023-04-24T12:25:32.900Z,4.90
2023-04-24T12:28:06.956Z,6.10
2023-04-24T12:30:39.421Z,3.00
2023-04-24T12:33:07.269Z,10.90
2023-04-24T12:35:36.823Z,9.60
2023-04-24T12:38:09.148Z,3.60
2023-04-24T12:40:37.218Z,3.30
2023-04-24T12:43:20.704Z,2.80
2023-04-24T12:45:49.507Z,3.30
2023-04-24T12:48:17.479Z,3.80
2023-04-24T12:50:46.752Z,4.30
2023-04-24T12:53:16.399Z,4.20
2023-04-24T12:55:45.747Z,5.40
2023-04-24T12:58:14.161Z,3.70
2023-04-24T13:00:44.472Z,2.40
2023-04-24T13:03:13.307Z,2.60
2023-04-24T13:05:42.216Z,4.20
2023-04-24T13:08:10.355Z,3.00
2023-04-24T13:10:38.253Z,3.90
2023-04-24T13:13:06.087Z,2.90
2023-04-24T13:15:33.968Z,4.40
2023-04-24T13:18:02.037Z,3.40
2023-04-24T13:20:30.237Z,3.70
2023-04-24T13:22:58.051Z,3.10
2023-04-24T13:25:26.165Z,2.70
2023-04-24T13:27:53.900Z,3.90
2023-04-24T13:30:21.910Z,4.40
2023-04-24T13:32:49.657Z,2.50
2023-04-24T13:35:17.510Z,3.00
2023-04-24T13:37:45.477Z,2.90
2023-04-24T13:40:13.329Z,2.80
2023-04-24T13:42:43.934Z,2.80
2023-04-24T13:45:24.170Z,2.90
2023-04-24T13:47:54.755Z,2.90
2023-04-24T13:50:23.050Z,5.30
2023-04-24T13:52:51.619Z,2.80
2023-04-24T13:55:19.430Z,3.30
2023-04-24T13:57:47.368Z,3.20
2023-04-24T14:00:16.146Z,3.30
2023-04-24T14:02:44.147Z,3.40
2023-04-24T14:05:12.455Z,4.10
2023-04-24T14:07:40.333Z,2.20
2023-04-24T14:10:08.568Z,2.70
2023-04-24T14:12:36.349Z,2.50
2023-04-24T14:15:05.932Z,3.10
2023-04-24T14:17:33.731Z,3.40
2023-04-24T14:20:01.713Z,2.60
2023-04-24T14:22:29.567Z,3.30
2023-04-24T14:24:57.431Z,3.70
2023-04-24T14:27:27.214Z,3.00
2023-04-24T14:29:55.063Z,3.70
2023-04-24T14:32:22.904Z,2.30
2023-04-24T14:34:50.714Z,2.70
2023-04-24T14:37:18.612Z,2.50
2023-04-24T14:39:56.234Z,4.90
2023-04-24T14:42:35.072Z,2.80
2023-04-24T14:45:03.475Z,4.20
2023-04-24T14:47:31.526Z,3.90
2023-04-24T14:49:59.563Z,3.70
2023-04-24T14:52:27.436Z,4.10
2023-04-24T14:54:55.790Z,4.00
2023-04-24T14:57:24.349Z,3.50
2023-04-24T14:59:52.421Z,4.80
2023-04-24T15:04:49.251Z,3.10
2023-04-24T15:07:17.163Z,3.00
2023-04-24T15:09:44.973Z,3.60
2023-04-24T15:12:14.351Z,4.30
2023-04-24T15:14:42.376Z,3.20
2023-04-24T15:17:10.389Z,2.80
2023-04-24T15:19:38.201Z,3.60
2023-04-24T15:22:06.091Z,2.80
2023-04-24T15:24:33.823Z,6.90
2023-04-24T15:27:02.714Z,4.40
2023-04-24T15:29:30.748Z,5.50
2023-04-24T15:31:58.919Z,3.60
2023-04-24T15:34:26.725Z,4.90
2023-04-24T15:36:54.647Z,4.10
2023-04-24T15:39:25.315Z,4.40
2023-04-24T15:41:54.163Z,6.80
2023-04-24T15:44:22.872Z,4.00
2023-04-24T15:46:52.443Z,7.70
2023-04-24T15:49:20.206Z,7.10
2023-04-24T15:51:48.032Z,7.50
2023-04-24T15:54:15.864Z,8.40
2023-04-24T15:56:45.369Z,4.20
2023-04-24T15:59:13.369Z,3.70
2023-04-24T16:01:41.294Z,6.50
2023-04-24T16:04:09.233Z,5.30
2023-04-24T16:06:37.293Z,4.70
2023-04-24T16:09:05.165Z,5.10
2023-04-24T16:11:33.909Z,5.00
2023-04-24T16:14:01.910Z,6.60
2023-04-24T16:16:29.811Z,4.70
2023-04-24T16:18:57.958Z,4.40
2023-04-24T16:21:25.684Z,3.80
2023-04-24T16:23:53.546Z,7.20
2023-04-24T16:26:21.649Z,4.10
2023-04-24T16:28:49.669Z,4.70
2023-04-24T16:31:18.055Z,7.90
2023-04-24T16:33:45.887Z,4.70
2023-04-24T16:36:13.618Z,6.10
2023-04-24T16:38:41.344Z,4.70
2023-04-24T16:41:09.293Z,4.90
2023-04-24T16:43:37.308Z,4.60
2023-04-24T16:46:05.245Z,4.20
2023-04-24T16:48:33.550Z,5.30
2023-04-24T16:51:01.502Z,5.80
2023-04-24T16:53:29.272Z,2.80
2023-04-24T16:55:57.135Z,7.90
2023-04-24T16:58:24.939Z,4.00
2023-04-24T17:00:52.777Z,3.60
2023-04-24T17:03:21.029Z,4.90
2023-04-24T17:05:49.758Z,4.20
2023-04-24T17:08:17.983Z,5.00
2023-04-24T17:10:46.966Z,3.50
2023-04-24T17:13:15.105Z,4.90
2023-04-24T17:15:43.057Z,7.50
2023-04-24T17:18:11.359Z,4.30
2023-04-24T17:20:39.347Z,6.30
2023-04-24T17:23:07.264Z,6.40
2023-04-24T17:25:34.996Z,7.10
2023-04-24T17:28:02.978Z,6.70
2023-04-24T17:30:30.788Z,10.60
2023-04-24T17:32:58.579Z,9.80
2023-04-24T17:35:26.472Z,9.20
2023-04-24T17:37:54.753Z,13.10
2023-04-24T17:40:22.888Z,10.20
2023-04-24T17:42:51.052Z,8.70
2023-04-24T17:45:19.496Z,10.40
2023-04-24T17:47:47.415Z,7.20
2023-04-24T17:50:15.984Z,8.40
2023-04-24T17:52:43.819Z,8.50
2023-04-24T17:55:11.638Z,8.10
2023-04-24T17:57:39.620Z,7.50
2023-04-24T18:00:07.983Z,6.10
2023-04-24T18:02:36.586Z,8.30
2023-04-24T18:05:05.094Z,5.80
2023-04-24T18:07:34.101Z,5.50
2023-04-24T18:10:02.002Z,10.20
2023-04-24T18:12:29.773Z,7.20
2023-04-24T18:15:12.826Z,8.70
2023-04-24T18:17:42.044Z,6.10
2023-04-24T18:20:11.484Z,8.90
2023-04-24T18:22:39.709Z,8.60
2023-04-24T18:25:08.220Z,16.70
2023-04-24T18:27:36.857Z,8.20
2023-04-24T18:30:06.719Z,6.70
2023-04-24T18:32:35.127Z,7.30
2023-04-24T18:35:03.974Z,10.50
2023-04-24T18:37:33.559Z,9.10
2023-04-24T18:40:02.498Z,10.40
2023-04-24T18:42:30.299Z,6.70
2023-04-24T18:45:01.679Z,8.20
2023-04-24T18:47:29.637Z,7.70
2023-04-24T18:49:57.400Z,7.10
2023-04-24T18:52:25.983Z,8.50
2023-04-24T18:54:53.782Z,8.80
2023-04-24T18:57:21.653Z,12.00
2023-04-24T18:59:49.617Z,9.10
2023-04-24T19:02:17.691Z,8.80
2023-04-24T19:04:45.842Z,10.90
2023-04-24T19:07:16.405Z,9.20
2023-04-24T19:09:44.329Z,8.60
2023-04-24T19:12:12.111Z,9.40
2023-04-24T19:14:40.006Z,10.60
2023-04-24T19:17:10.105Z,9.30
2023-04-24T19:19:38.246Z,11.50
2023-04-24T19:22:07.882Z,6.60
2023-04-24T19:24:36.116Z,8.70
2023-04-24T19:27:03.929Z,8.40
2023-04-24T19:29:32.079Z,8.50
2023-04-24T19:31:59.968Z,9.70
2023-04-24T19:34:29.407Z,9.80
2023-04-24T19:39:25.137Z,8.60
2023-04-24T19:41:52.994Z,9.30
2023-04-24T19:44:20.932Z,7.10
2023-04-24T19:46:48.675Z,10.20
2023-04-24T19:49:17.132Z,8.00
2023-04-24T19:51:44.854Z,7.70
2023-04-24T19:54:13.112Z,8.90
2023-04-24T19:56:41.034Z,9.70
2023-04-24T19:59:08.926Z,9.10
2023-04-24T20:01:36.851Z,7.70
2023-04-24T20:04:07.814Z,6.50
2023-04-24T20:06:35.781Z,8.60
2023-04-24T20:09:05.901Z,8.40
2023-04-24T20:11:34.002Z,9.20
2023-04-24T20:14:03.698Z,8.60
2023-04-24T20:16:31.989Z,8.70
2023-04-24T20:18:59.939Z,6.60
2023-04-24T20:21:28.642Z,5.60
2023-04-24T20:23:56.857Z,6.90
2023-04-24T20:26:24.690Z,8.00
2023-04-24T20:28:52.652Z,7.60
2023-04-24T20:31:21.343Z,7.70
2023-04-24T20:33:49.198Z,6.60
2023-04-24T20:36:17.014Z,8.80
2023-04-24T20:38:44.730Z,7.60
2023-04-24T20:41:12.758Z,8.40
2023-04-24T20:43:40.820Z,8.70
2023-04-24T20:46:08.876Z,7.30
2023-04-24T20:48:36.716Z,6.00
2023-04-24T20:51:04.589Z,5.20
2023-04-24T20:53:32.330Z,8.40
2023-04-24T20:56:00.183Z,5.40
2023-04-24T20:58:28.152Z,7.40
2023-04-24T21:00:55.990Z,5.60
2023-04-24T21:03:24.104Z,6.00
2023-04-24T21:05:51.946Z,6.00
2023-04-24T21:08:19.712Z,7.20
2023-04-24T21:10:47.521Z,8.10
2023-04-24T21:13:15.389Z,6.00
2023-04-24T21:15:43.556Z,9.10
2023-04-24T21:18:11.489Z,7.60
2023-04-24T21:20:39.415Z,5.10
2023-04-24T21:23:07.307Z,8.50
2023-04-24T21:25:36.869Z,7.60
2023-04-24T21:28:04.945Z,6.30
2023-04-24T21:30:32.868Z,6.20
2023-04-24T21:33:01.070Z,7.00
2023-04-24T21:35:29.016Z,6.40
2023-04-24T21:37:56.819Z,6.80
2023-04-24T21:40:24.649Z,7.60
2023-04-24T21:42:52.913Z,5.70
2023-04-24T21:45:20.843Z,9.50
2023-04-24T21:47:48.629Z,9.40
2023-04-24T21:50:16.568Z,7.10
2023-04-24T21:52:44.496Z,9.80
2023-04-24T21:55:12.198Z,7.90
2023-04-24T21:57:40.199Z,8.00
2023-04-24T22:00:08.718Z,8.10
2023-04-24T22:02:36.576Z,7.30
2023-04-24T22:05:05.497Z,8.40
2023-04-24T22:07:35.243Z,7.90
2023-04-24T22:10:04.711Z,10.90
2023-04-24T22:12:32.489Z,7.60
2023-04-24T22:15:01.066Z,7.10
2023-04-24T22:17:28.891Z,7.90
2023-04-24T22:19:57.406Z,9.20
2023-04-24T22:22:25.462Z,7.80
2023-04-24T22:24:53.462Z,7.10
2023-04-24T22:27:21.531Z,7.40
2023-04-24T22:29:49.273Z,7.60
2023-04-24T22:32:17.061Z,8.70
2023-04-24T22:34:44.894Z,9.60
2023-04-24T22:37:13.341Z,10.40
2023-04-24T22:39:41.158Z,9.20
2023-04-24T22:42:09.111Z,7.90
2023-04-24T22:44:36.988Z,9.30
2023-04-24T22:47:08.358Z,8.10
2023-04-24T22:49:36.524Z,9.20
2023-04-24T22:52:08.209Z,9.50
2023-04-24T22:54:35.992Z,9.80
2023-04-24T22:57:06.181Z,7.80
2023-04-24T22:59:33.967Z,8.70
2023-04-24T23:02:01.932Z,10.30
2023-04-24T23:04:30.281Z,8.30
2023-04-24T23:06:58.079Z,10.60
2023-04-24T23:09:25.828Z,9.10
2023-04-24T23:11:53.560Z,12.50
2023-04-24T23:14:21.872Z,13.00
2023-04-24T23:16:49.700Z,9.50
2023-04-24T23:19:17.463Z,7.80
2023-04-24T23:21:45.254Z,8.70
2023-04-24T23:24:14.089Z,8.90
2023-04-24T23:26:41.999Z,8.90
2023-04-24T23:29:09.918Z,8.80
2023-04-24T23:31:37.755Z,10.20
2023-04-24T23:37:20.979Z,10.90
2023-04-24T23:39:49.656Z,11.20
2023-04-24T23:42:17.608Z,10.60
2023-04-24T23:44:45.526Z,8.90
2023-04-24T23:47:13.436Z,10.70
2023-04-24T23:49:41.147Z,9.90
2023-04-24T23:52:08.993Z,10.00
2023-04-24T23:54:37.096Z,10.20
2023-04-24T23:57:04.961Z,8.40
2023-04-24T23:59:32.729Z,8.50
